PROFILE

 METAR AND TAF INFORMATION
ADDS - METARS form results

(0550 UTC 22 September 2019)
http://aviationweather.gov/metar/data/
 
LIPH 220520Z 03003KT CAVOK 14/08 Q1019
TAF LIPH 220500Z 2206/2306 02006KT 9999 FEW050 TEMPO 2221/2306 RA 

 AIRPORT MAP

 RUNWAY INFORMATION
Runway 07 Runway length 7941 ft Runway width 144 ft
Runway elevation 56 ft Runway displaced threshold 254 ft Runway heading 69
Runway 25 Runway length 7941 ft Runway width 144 ft
Runway elevation 51 ft Runway displaced threshold 389 ft Runway heading 249

 AIRPORT FREQUENCIES
Type APP Name APP Frequency 36.23 MHZ
Type APP Name APP Frequency 120.4 MHZ
Type GND Name GND Frequency 27.917 MHZ
Type INFO Name PADOVA INF Frequency 124.15 MHZ
Type TWR Name TWR Frequency 118.7 MHZ

 AIRPORT NEAR NAVIGATION AIDS
Type NDB Name Treviso Frequency 302 KHZ